Time;durP1;ratioP1;P1;durP2;ratioP2;P2;SDS_P1;SDS_P2;PMS_P1;PMS_P2;Temp;Humidity;BMP_temperature;BMP_pressure;BME280_temperature;BME280_humidity;BME280_pressure;Samples;Min_cycle;Max_cycle;Signal;HPM_P1;HPM_P2
2023/09/24 00:02:11;;;;;;;0.08;0.08;;;16.50;50.40;;;;;;5071989;28;20214;-62
2023/09/24 00:04:42;;;;;;;0.00;0.00;;;16.50;50.40;;;;;;5071761;28;20713;-64
2023/09/24 00:07:15;;;;;;;0.00;0.00;;;16.50;50.30;;;;;;5071771;28;20559;-64
2023/09/24 00:09:45;;;;;;;0.10;0.10;;;16.60;50.30;;;;;;5071315;28;20194;-61
2023/09/24 00:12:17;;;;;;;0.10;0.10;;;16.60;50.30;;;;;;5071866;28;20219;-64
2023/09/24 00:14:48;;;;;;;0.10;0.10;;;16.60;50.20;;;;;;5069346;28;20646;-64
2023/09/24 00:17:19;;;;;;;0.00;0.00;;;16.60;50.20;;;;;;5070969;28;20277;-60
2023/09/24 00:19:50;;;;;;;0.05;0.05;;;16.60;50.20;;;;;;5071787;28;20638;-61
2023/09/24 00:22:22;;;;;;;0.10;0.10;;;16.60;50.20;;;;;;5071478;28;20221;-63
2023/09/24 00:24:53;;;;;;;0.00;0.00;;;16.70;50.30;;;;;;5071477;28;20201;-60
2023/09/24 00:27:24;;;;;;;0.00;0.00;;;16.60;50.20;;;;;;5071608;28;20191;-62
2023/09/24 00:29:54;;;;;;;0.10;0.10;;;16.60;50.20;;;;;;5071190;28;20741;-60
2023/09/24 00:32:25;;;;;;;0.00;0.00;;;16.70;50.30;;;;;;5070629;28;20686;-61
2023/09/24 00:34:58;;;;;;;0.10;0.10;;;16.70;50.30;;;;;;5071379;28;20207;-60
2023/09/24 00:37:31;;;;;;;0.10;0.10;;;16.70;50.30;;;;;;5071578;28;20190;-63
2023/09/24 00:40:02;;;;;;;0.08;0.08;;;16.70;50.30;;;;;;5071446;28;20287;-58
2023/09/24 00:42:33;;;;;;;0.10;0.10;;;16.70;50.20;;;;;;5070980;28;20219;-64
2023/09/24 00:45:04;;;;;;;0.10;0.10;;;16.70;50.20;;;;;;5070540;28;20631;-61
2023/09/24 00:47:36;;;;;;;0.00;0.00;;;16.70;50.20;;;;;;5071197;28;20202;-62
2023/09/24 00:50:09;;;;;;;0.00;0.00;;;16.70;50.20;;;;;;5071469;28;20195;-59
2023/09/24 00:52:43;;;;;;;0.10;0.10;;;16.80;50.20;;;;;;5071649;28;20600;-63
2023/09/24 00:55:15;;;;;;;0.05;0.05;;;16.80;50.20;;;;;;5074620;28;20694;-60
2023/09/24 00:57:48;;;;;;;0.08;0.08;;;16.80;50.10;;;;;;5074975;28;20209;-62
2023/09/24 01:00:20;;;;;;;0.00;0.00;;;16.80;50.10;;;;;;5074449;28;20195;-61
2023/09/24 01:02:51;;;;;;;0.08;0.08;;;16.80;50.10;;;;;;5075142;28;20205;-62
2023/09/24 01:05:22;;;;;;;0.10;0.10;;;16.80;50.10;;;;;;5074873;28;20202;-65
2023/09/24 01:07:55;;;;;;;0.05;0.05;;;16.80;50.10;;;;;;5074632;28;20198;-65
2023/09/24 01:10:26;;;;;;;0.00;0.00;;;16.80;50.20;;;;;;5074213;28;20286;-62
2023/09/24 01:13:01;;;;;;;0.10;0.10;;;16.80;50.10;;;;;;5073880;28;20227;-60
2023/09/24 01:15:31;;;;;;;0.03;0.03;;;16.80;50.10;;;;;;5073769;28;20198;-63
2023/09/24 01:18:03;;;;;;;0.03;0.03;;;16.90;50.20;;;;;;5074460;28;20191;-58
2023/09/24 01:20:34;;;;;;;0.10;0.10;;;16.90;50.10;;;;;;5074303;28;20218;-60
2023/09/24 01:23:06;;;;;;;0.05;0.05;;;16.90;50.10;;;;;;5074288;28;20199;-61
2023/09/24 01:25:38;;;;;;;0.00;0.00;;;16.90;50.10;;;;;;5074331;28;20224;-63
2023/09/24 01:28:10;;;;;;;0.05;0.05;;;16.90;50.10;;;;;;5073789;28;20647;-60
2023/09/24 01:30:41;;;;;;;0.08;0.08;;;16.90;50.10;;;;;;5073708;28;20210;-64
2023/09/24 01:33:12;;;;;;;0.10;0.10;;;16.90;50.00;;;;;;5073196;28;20588;-56
2023/09/24 01:35:42;;;;;;;0.10;0.10;;;16.90;49.90;;;;;;5073502;28;20199;-59
2023/09/24 01:38:16;;;;;;;0.10;0.10;;;17.00;50.00;;;;;;5074147;28;20659;-61
2023/09/24 01:40:46;;;;;;;0.00;0.00;;;17.00;49.90;;;;;;5074148;28;20225;-60
2023/09/24 01:43:17;;;;;;;0.10;0.10;;;17.00;49.90;;;;;;5074241;28;20480;-61
2023/09/24 01:45:48;;;;;;;0.00;0.00;;;17.00;49.90;;;;;;5073563;28;20234;-60
2023/09/24 01:48:19;;;;;;;0.10;0.10;;;17.00;49.90;;;;;;5073903;28;20191;-60
2023/09/24 01:50:50;;;;;;;0.05;0.05;;;17.00;49.90;;;;;;5073754;28;20214;-62
2023/09/24 01:53:25;;;;;;;0.00;0.00;;;17.00;49.90;;;;;;5074034;28;20226;-57
2023/09/24 01:55:55;;;;;;;0.10;0.10;;;17.10;50.00;;;;;;5074588;28;20206;-57
2023/09/24 01:58:26;;;;;;;0.00;0.00;;;17.10;49.90;;;;;;5073802;28;20610;-61
2023/09/24 02:00:57;;;;;;;0.10;0.10;;;17.10;49.90;;;;;;5072774;28;20218;-61
2023/09/24 02:03:28;;;;;;;0.00;0.00;;;17.10;49.90;;;;;;5088403;28;20279;-60
2023/09/24 02:05:59;;;;;;;0.00;0.00;;;17.10;49.90;;;;;;5077821;28;20206;-61
2023/09/24 02:08:32;;;;;;;0.10;0.10;;;17.10;49.90;;;;;;5072656;28;20203;-62
2023/09/24 02:11:03;;;;;;;0.00;0.00;;;17.10;49.90;;;;;;5074025;28;20215;-60
2023/09/24 02:13:34;;;;;;;0.00;0.00;;;17.10;49.80;;;;;;5074253;28;20219;-60
2023/09/24 02:16:06;;;;;;;0.10;0.10;;;17.10;49.80;;;;;;5073598;28;20204;-59
2023/09/24 02:18:37;;;;;;;0.00;0.00;;;17.10;49.80;;;;;;5073811;28;20202;-60
2023/09/24 02:21:14;;;;;;;0.00;0.00;;;17.20;49.80;;;;;;5073461;28;20280;-61
2023/09/24 02:23:47;;;;;;;0.00;0.00;;;17.20;49.80;;;;;;5073176;28;20218;-59
2023/09/24 02:26:17;;;;;;;0.00;0.00;;;17.20;49.80;;;;;;5073111;28;20199;-59
2023/09/24 02:28:48;;;;;;;0.00;0.00;;;17.20;49.80;;;;;;5072688;28;20287;-59
2023/09/24 02:31:19;;;;;;;0.10;0.10;;;17.20;49.70;;;;;;5072686;28;20221;-61
2023/09/24 02:33:49;;;;;;;0.10;0.10;;;17.20;49.80;;;;;;5073245;28;20582;-63
2023/09/24 02:36:20;;;;;;;0.10;0.10;;;17.20;49.80;;;;;;5073366;28;20557;-64
2023/09/24 02:38:52;;;;;;;0.08;0.08;;;17.20;49.80;;;;;;5072695;28;20198;-64
2023/09/24 02:41:23;;;;;;;0.08;0.08;;;17.20;49.70;;;;;;5072837;28;20258;-63
2023/09/24 02:43:54;;;;;;;0.00;0.00;;;17.30;49.80;;;;;;5072711;28;20199;-63
2023/09/24 02:46:26;;;;;;;0.10;0.10;;;17.30;49.80;;;;;;5072831;28;20220;-61
2023/09/24 02:48:56;;;;;;;0.10;0.10;;;17.30;49.70;;;;;;5073095;28;20201;-63
2023/09/24 02:51:28;;;;;;;0.10;0.10;;;17.30;49.70;;;;;;5072687;28;20215;-63
2023/09/24 02:54:00;;;;;;;0.10;0.10;;;17.30;49.60;;;;;;5072805;28;20223;-60
2023/09/24 02:56:31;;;;;;;0.10;0.10;;;17.30;49.60;;;;;;5072742;28;20230;-61
2023/09/24 02:59:03;;;;;;;0.10;0.10;;;17.30;49.60;;;;;;5072854;28;20619;-62
2023/09/24 03:01:35;;;;;;;0.00;0.00;;;17.30;49.60;;;;;;5072526;28;20221;-63
2023/09/24 03:04:06;;;;;;;0.10;0.10;;;17.30;49.60;;;;;;5056527;28;20199;-62
2023/09/24 03:06:38;;;;;;;0.00;0.00;;;17.30;49.50;;;;;;5072760;28;20210;-64
2023/09/24 03:09:11;;;;;;;0.00;0.00;;;17.30;49.50;;;;;;5072218;28;20248;-59
2023/09/24 03:11:42;;;;;;;0.03;0.03;;;17.30;49.50;;;;;;5072354;28;20257;-65
2023/09/24 03:14:12;;;;;;;0.00;0.00;;;17.30;49.50;;;;;;5072801;28;20735;-64
2023/09/24 03:16:43;;;;;;;0.00;0.00;;;17.30;49.50;;;;;;5071676;28;20559;-64
2023/09/24 03:19:14;;;;;;;0.10;0.10;;;17.30;49.50;;;;;;5071703;28;20723;-61
2023/09/24 03:21:44;;;;;;;0.10;0.10;;;17.30;49.50;;;;;;5071818;28;20221;-63
2023/09/24 03:24:17;;;;;;;0.10;0.10;;;17.30;49.50;;;;;;5072276;28;20643;-62
2023/09/24 03:26:47;;;;;;;0.00;0.00;;;17.30;49.50;;;;;;5072263;28;20281;-62
2023/09/24 03:29:19;;;;;;;0.10;0.10;;;17.30;49.40;;;;;;5072173;28;20285;-62
2023/09/24 03:31:49;;;;;;;0.00;0.00;;;17.30;49.50;;;;;;5072201;28;20214;-61
2023/09/24 03:34:20;;;;;;;0.00;0.00;;;17.30;49.50;;;;;;5071637;28;20222;-58
2023/09/24 03:36:51;;;;;;;0.00;0.00;;;17.30;49.40;;;;;;5072053;28;20202;-57
2023/09/24 03:39:24;;;;;;;0.00;0.00;;;17.30;49.40;;;;;;5071197;28;20657;-59
2023/09/24 03:41:55;;;;;;;0.00;0.00;;;17.40;49.40;;;;;;5072011;28;20277;-61
2023/09/24 03:44:25;;;;;;;0.03;0.03;;;17.40;49.40;;;;;;5071381;28;20195;-58
2023/09/24 03:46:56;;;;;;;0.00;0.00;;;17.40;49.30;;;;;;5071728;28;20203;-57
2023/09/24 03:49:26;;;;;;;0.08;0.08;;;17.40;49.30;;;;;;5072294;28;20534;-58
2023/09/24 03:51:57;;;;;;;0.00;0.00;;;17.40;49.30;;;;;;5072243;28;20223;-63
2023/09/24 03:54:31;;;;;;;0.08;0.08;;;17.40;49.30;;;;;;5071841;28;20231;-59
2023/09/24 03:57:01;;;;;;;0.00;0.00;;;17.40;49.20;;;;;;5071780;28;20199;-58
2023/09/24 03:59:32;;;;;;;0.10;0.10;;;17.40;49.20;;;;;;5071997;28;20649;-61
2023/09/24 04:02:06;;;;;;;0.00;0.00;;;17.40;49.30;;;;;;5058805;28;20215;-62
2023/09/24 04:04:37;;;;;;;0.00;0.00;;;17.40;49.20;;;;;;5055933;28;20289;-63
2023/09/24 04:07:07;;;;;;;0.10;0.10;;;17.40;49.30;;;;;;5071753;28;20286;-63
2023/09/24 04:09:40;;;;;;;0.10;0.10;;;17.40;49.30;;;;;;5071715;28;20426;-64
2023/09/24 04:12:13;;;;;;;0.05;0.05;;;17.30;49.20;;;;;;5071849;28;20214;-60
2023/09/24 04:14:43;;;;;;;0.00;0.00;;;17.40;49.20;;;;;;5071069;28;20260;-60
2023/09/24 04:17:14;;;;;;;0.10;0.10;;;17.40;49.20;;;;;;5072121;28;20191;-61
2023/09/24 04:19:45;;;;;;;0.10;0.10;;;17.40;49.20;;;;;;5071417;28;20665;-61
2023/09/24 04:22:15;;;;;;;0.10;0.10;;;17.40;49.20;;;;;;5071438;28;20211;-61
2023/09/24 04:24:48;;;;;;;0.00;0.00;;;17.40;49.10;;;;;;5071424;28;20195;-62
2023/09/24 04:27:19;;;;;;;0.10;0.10;;;17.40;49.10;;;;;;5071312;28;20655;-63
2023/09/24 04:29:50;;;;;;;0.00;0.00;;;17.40;49.10;;;;;;5074969;28;20202;-62
2023/09/24 04:32:20;;;;;;;0.10;0.10;;;17.40;49.00;;;;;;5075180;28;20219;-64
2023/09/24 04:34:55;;;;;;;0.10;0.10;;;17.40;49.00;;;;;;5075613;28;20230;-62
2023/09/24 04:37:26;;;;;;;0.00;0.00;;;17.40;49.00;;;;;;5075554;28;20220;-65
2023/09/24 04:39:59;;;;;;;0.00;0.00;;;17.40;49.00;;;;;;5075615;28;20207;-62
2023/09/24 04:42:29;;;;;;;0.10;0.10;;;17.40;49.00;;;;;;5075269;28;20214;-58
2023/09/24 04:45:00;;;;;;;0.10;0.10;;;17.30;48.90;;;;;;5075254;28;20202;-62
2023/09/24 04:47:30;;;;;;;0.00;0.00;;;17.30;48.90;;;;;;5075453;28;20197;-59
2023/09/24 04:50:02;;;;;;;0.08;0.08;;;17.30;48.90;;;;;;5075245;28;20195;-64
2023/09/24 04:52:33;;;;;;;0.10;0.10;;;17.40;49.00;;;;;;5075045;28;20218;-63
2023/09/24 04:55:06;;;;;;;0.03;0.03;;;17.30;48.90;;;;;;5074971;28;20237;-57
2023/09/24 04:57:37;;;;;;;0.00;0.00;;;17.40;49.00;;;;;;5074013;28;20689;-60
2023/09/24 05:00:10;;;;;;;0.10;0.10;;;17.40;49.00;;;;;;5074581;28;20202;-56
2023/09/24 05:02:41;;;;;;;0.00;0.00;;;17.40;48.90;;;;;;5074689;28;20650;-63
2023/09/24 05:05:12;;;;;;;0.00;0.00;;;17.40;48.90;;;;;;5074853;28;20214;-64
2023/09/24 05:07:43;;;;;;;0.08;0.08;;;17.40;48.90;;;;;;5074800;28;20240;-64
2023/09/24 05:10:15;;;;;;;0.00;0.00;;;17.40;48.90;;;;;;5074848;28;20221;-62
2023/09/24 05:12:46;;;;;;;0.08;0.08;;;17.30;48.80;;;;;;5074719;28;20203;-60
2023/09/24 05:15:17;;;;;;;0.00;0.00;;;17.30;48.80;;;;;;5074817;28;20231;-64
2023/09/24 05:17:47;;;;;;;0.10;0.10;;;17.30;48.80;;;;;;5074771;28;20206;-60
2023/09/24 05:20:18;;;;;;;0.00;0.00;;;17.30;48.80;;;;;;5074013;28;20202;-63
2023/09/24 05:22:49;;;;;;;0.05;0.05;;;17.30;48.80;;;;;;5074646;28;20559;-65
2023/09/24 05:25:21;;;;;;;0.00;0.00;;;17.30;48.80;;;;;;5074207;28;20195;-58
2023/09/24 05:27:52;;;;;;;0.03;0.03;;;17.30;48.80;;;;;;5074143;28;20230;-61
2023/09/24 05:30:23;;;;;;;0.00;0.00;;;17.30;48.80;;;;;;5074113;28;20190;-62
2023/09/24 05:32:53;;;;;;;0.10;0.10;;;17.30;48.80;;;;;;5073992;28;20199;-64
2023/09/24 05:35:25;;;;;;;0.00;0.00;;;17.30;48.70;;;;;;5073631;28;20233;-62
2023/09/24 05:37:56;;;;;;;0.10;0.10;;;17.30;48.70;;;;;;5074383;28;20198;-62
2023/09/24 05:40:29;;;;;;;0.05;0.05;;;17.30;48.80;;;;;;5073520;28;20206;-60
2023/09/24 05:42:59;;;;;;;0.00;0.00;;;17.30;48.70;;;;;;5073433;28;20198;-60
2023/09/24 05:45:30;;;;;;;0.10;0.10;;;17.30;48.80;;;;;;5074615;28;20206;-59
2023/09/24 05:48:00;;;;;;;0.10;0.10;;;17.30;48.70;;;;;;5074223;28;20642;-55
2023/09/24 05:50:31;;;;;;;0.10;0.10;;;17.30;48.70;;;;;;5074153;28;20203;-63
2023/09/24 05:53:02;;;;;;;0.00;0.00;;;17.30;48.70;;;;;;5073830;28;20198;-61
2023/09/24 05:55:34;;;;;;;0.10;0.10;;;17.30;48.70;;;;;;5073471;28;20694;-63
2023/09/24 05:58:05;;;;;;;0.00;0.00;;;17.30;48.70;;;;;;5073302;28;20198;-61
2023/09/24 06:00:38;;;;;;;0.03;0.03;;;17.20;48.70;;;;;;5073988;28;20250;-60
2023/09/24 06:03:09;;;;;;;0.00;0.00;;;17.20;48.70;;;;;;5073641;28;20194;-57
2023/09/24 06:05:42;;;;;;;0.00;0.00;;;17.20;48.70;;;;;;5073436;28;20210;-58
2023/09/24 06:08:13;;;;;;;0.10;0.10;;;17.20;49.30;;;;;;5073311;28;20199;-57
2023/09/24 06:10:49;;;;;;;0.00;0.00;;;17.20;48.70;;;;;;5073326;28;20302;-60
2023/09/24 06:13:19;;;;;;;0.05;0.05;;;17.20;48.70;;;;;;5073559;28;20213;-56
2023/09/24 06:15:50;;;;;;;0.10;0.10;;;17.20;48.70;;;;;;5073812;28;20195;-59
2023/09/24 06:18:21;;;;;;;0.08;0.08;;;17.20;48.70;;;;;;5074079;28;20227;-60
2023/09/24 06:20:52;;;;;;;0.10;0.10;;;17.20;48.70;;;;;;5073582;28;20250;-63
2023/09/24 06:23:23;;;;;;;0.00;0.00;;;17.20;48.70;;;;;;5073437;28;20202;-58
2023/09/24 06:26:01;;;;;;;0.03;0.03;;;17.20;48.70;;;;;;5073474;28;20206;-62
2023/09/24 06:28:31;;;;;;;0.10;0.10;;;17.20;48.70;;;;;;5073268;28;20285;-58
2023/09/24 06:31:03;;;;;;;0.10;0.10;;;17.20;48.70;;;;;;5073317;28;20229;-59
2023/09/24 06:33:34;;;;;;;0.00;0.00;;;17.10;48.60;;;;;;5073528;28;20199;-58
2023/09/24 06:36:05;;;;;;;0.00;0.00;;;17.10;48.60;;;;;;5073321;28;20199;-62
2023/09/24 06:38:36;;;;;;;0.00;0.00;;;17.10;48.60;;;;;;5073044;28;20705;-56
2023/09/24 06:41:09;;;;;;;0.10;0.10;;;17.10;48.60;;;;;;5072388;28;20215;-61
2023/09/24 06:43:40;;;;;;;0.00;0.00;;;17.10;48.60;;;;;;5072823;28;20199;-62
2023/09/24 06:46:10;;;;;;;0.00;0.00;;;17.10;48.60;;;;;;5072842;28;20673;-61
2023/09/24 06:48:41;;;;;;;0.10;0.10;;;17.10;48.60;;;;;;5072704;28;20194;-62
2023/09/24 06:51:12;;;;;;;0.10;0.10;;;17.10;48.60;;;;;;5071366;28;20594;-58
2023/09/24 06:53:43;;;;;;;0.10;0.10;;;17.10;48.60;;;;;;5071944;28;20666;-61
2023/09/24 06:56:16;;;;;;;0.10;0.10;;;17.10;48.60;;;;;;5072027;28;20202;-59
2023/09/24 06:58:46;;;;;;;0.00;0.00;;;17.10;48.60;;;;;;5072295;28;20201;-58
2023/09/24 07:01:17;;;;;;;0.00;0.00;;;17.10;48.60;;;;;;5072442;28;20229;-61
2023/09/24 07:03:48;;;;;;;0.10;0.10;;;17.10;48.50;;;;;;5072579;28;20252;-63
2023/09/24 07:06:21;;;;;;;0.10;0.10;;;17.10;48.60;;;;;;5072918;28;20249;-59
2023/09/24 07:08:52;;;;;;;0.10;0.10;;;17.10;48.60;;;;;;5072503;28;20230;-57
2023/09/24 07:11:31;;;;;;;0.00;0.00;;;17.00;48.60;;;;;;5072077;28;20620;-59
2023/09/24 07:14:04;;;;;;;0.10;0.10;;;17.00;48.60;;;;;;5073082;28;20690;-58
2023/09/24 07:16:35;;;;;;;0.00;0.00;;;17.00;48.50;;;;;;5072374;28;20202;-59
2023/09/24 07:19:05;;;;;;;0.05;0.05;;;17.00;48.50;;;;;;5072352;28;20195;-56
2023/09/24 07:21:36;;;;;;;0.00;0.00;;;17.00;48.50;;;;;;5072373;28;20223;-61
2023/09/24 07:24:07;;;;;;;0.05;0.05;;;17.00;48.50;;;;;;5072168;28;20209;-59
2023/09/24 07:26:40;;;;;;;0.10;0.10;;;17.00;48.50;;;;;;5071750;28;20282;-61
2023/09/24 07:29:11;;;;;;;0.10;0.10;;;17.00;48.50;;;;;;5071385;28;20201;-59
2023/09/24 07:31:41;;;;;;;0.00;0.00;;;17.00;48.50;;;;;;5071601;28;20228;-55
2023/09/24 07:34:12;;;;;;;0.10;0.10;;;17.00;48.50;;;;;;5071971;28;20221;-58
2023/09/24 07:36:42;;;;;;;0.08;0.08;;;17.00;48.50;;;;;;5072281;28;20198;-55
2023/09/24 07:39:13;;;;;;;0.05;0.05;;;17.00;48.60;;;;;;5072017;28;20722;-58
2023/09/24 07:41:46;;;;;;;0.10;0.10;;;16.90;48.50;;;;;;5071259;28;20219;-58
2023/09/24 07:44:16;;;;;;;0.10;0.10;;;17.00;49.10;;;;;;5071909;28;20202;-60
2023/09/24 07:46:49;;;;;;;0.10;0.10;;;16.90;48.40;;;;;;5071640;28;20671;-57
2023/09/24 07:49:19;;;;;;;0.00;0.00;;;16.90;48.50;;;;;;5071718;28;20241;-59
2023/09/24 07:51:50;;;;;;;0.03;0.03;;;16.90;48.50;;;;;;5071974;28;20222;-57
2023/09/24 07:54:21;;;;;;;0.10;0.10;;;16.90;48.50;;;;;;5071415;28;20697;-58
2023/09/24 07:56:53;;;;;;;0.00;0.00;;;16.90;48.50;;;;;;5071306;28;20195;-58
2023/09/24 07:59:25;;;;;;;0.00;0.00;;;16.90;48.50;;;;;;5072226;28;20612;-59
2023/09/24 08:01:55;;;;;;;0.05;0.05;;;16.90;48.50;;;;;;5071516;28;20250;-61
2023/09/24 08:04:26;;;;;;;0.00;0.00;;;16.90;48.50;;;;;;5071501;28;20210;-58
2023/09/24 08:06:57;;;;;;;0.00;0.00;;;16.90;48.50;;;;;;5072062;28;20206;-61
2023/09/24 08:09:28;;;;;;;0.10;0.10;;;16.90;48.50;;;;;;5071377;28;20191;-60
2023/09/24 08:12:01;;;;;;;0.00;0.00;;;16.90;48.50;;;;;;5071197;28;20218;-59
2023/09/24 08:14:31;;;;;;;0.05;0.05;;;16.90;48.50;;;;;;5071770;28;20218;-59
2023/09/24 08:17:02;;;;;;;0.10;0.10;;;16.90;48.40;;;;;;5071134;28;20194;-61
2023/09/24 08:19:33;;;;;;;0.10;0.10;;;16.90;48.50;;;;;;5071167;28;20556;-58
2023/09/24 08:22:03;;;;;;;0.00;0.00;;;16.80;48.40;;;;;;5071316;28;20211;-63
2023/09/24 08:24:34;;;;;;;0.00;0.00;;;16.80;48.40;;;;;;5071729;28;20199;-62
2023/09/24 08:27:07;;;;;;;0.08;0.08;;;16.80;48.40;;;;;;5070882;28;20195;-60
2023/09/24 08:29:38;;;;;;;0.03;0.03;;;16.80;48.40;;;;;;5071566;28;20286;-60
2023/09/24 08:32:08;;;;;;;0.03;0.03;;;16.80;48.40;;;;;;5071579;28;20227;-63
2023/09/24 08:34:39;;;;;;;0.00;0.00;;;16.80;48.40;;;;;;5071269;28;20222;-59
2023/09/24 08:37:09;;;;;;;0.10;0.10;;;16.80;48.40;;;;;;5071542;28;20198;-60
2023/09/24 08:39:40;;;;;;;0.10;0.10;;;16.80;48.40;;;;;;5071144;28;20634;-59
2023/09/24 08:42:15;;;;;;;0.00;0.00;;;16.80;48.40;;;;;;5071377;28;20222;-61
2023/09/24 08:44:46;;;;;;;0.00;0.00;;;16.80;48.40;;;;;;5070789;28;20201;-60
2023/09/24 08:47:17;;;;;;;0.05;0.05;;;16.80;48.40;;;;;;5070749;28;20191;-62
2023/09/24 08:49:50;;;;;;;0.05;0.05;;;16.80;48.40;;;;;;5071420;28;20233;-56
2023/09/24 08:52:22;;;;;;;0.08;0.08;;;16.80;48.40;;;;;;5071154;28;20211;-60
2023/09/24 08:54:53;;;;;;;0.00;0.00;;;16.80;48.40;;;;;;5070236;28;20238;-57
2023/09/24 08:57:26;;;;;;;0.00;0.00;;;16.80;48.40;;;;;;5070324;28;20195;-59
2023/09/24 08:59:56;;;;;;;0.03;0.03;;;16.70;48.40;;;;;;5071203;28;20201;-60
2023/09/24 09:02:27;;;;;;;0.10;0.10;;;16.70;48.40;;;;;;5071114;28;20226;-63
2023/09/24 09:04:58;;;;;;;0.00;0.00;;;16.70;48.40;;;;;;5071130;28;20203;-62
2023/09/24 09:07:28;;;;;;;0.00;0.00;;;16.70;48.40;;;;;;5070823;28;20281;-63
2023/09/24 09:10:03;;;;;;;0.00;0.00;;;16.70;48.40;;;;;;5070823;28;20199;-61
2023/09/24 09:12:35;;;;;;;0.10;0.10;;;16.80;48.40;;;;;;5071589;28;20245;-61
2023/09/24 09:15:19;;;;;;;0.10;0.10;;;16.70;48.40;;;;;;5074017;28;20221;-62
2023/09/24 09:17:49;;;;;;;0.10;0.10;;;16.70;48.40;;;;;;5074465;28;20249;-59
2023/09/24 09:20:20;;;;;;;0.00;0.00;;;16.70;48.40;;;;;;5074638;28;20203;-58
2023/09/24 09:22:51;;;;;;;0.10;0.10;;;16.70;48.40;;;;;;5074558;28;20205;-56
2023/09/24 09:25:22;;;;;;;0.00;0.00;;;16.70;48.40;;;;;;5073672;28;20635;-60
2023/09/24 09:27:55;;;;;;;0.10;0.10;;;16.70;48.40;;;;;;5074156;28;20198;-60
2023/09/24 09:30:26;;;;;;;0.10;0.10;;;16.70;48.40;;;;;;5074179;28;20256;-62
2023/09/24 09:32:56;;;;;;;0.00;0.00;;;16.70;48.40;;;;;;5074552;28;20241;-61
2023/09/24 09:35:36;;;;;;;0.10;0.10;;;16.70;48.40;;;;;;5073394;28;20219;-62
2023/09/24 09:38:15;;;;;;;0.08;0.08;;;16.70;48.40;;;;;;5073173;28;20191;-54
2023/09/24 09:40:45;;;;;;;0.10;0.10;;;16.70;48.40;;;;;;5073538;28;20237;-59
2023/09/24 09:43:19;;;;;;;0.08;0.08;;;16.70;48.40;;;;;;5074361;28;20202;-60
2023/09/24 09:45:52;;;;;;;0.00;0.00;;;16.60;48.40;;;;;;5074580;28;20530;-59
2023/09/24 09:48:29;;;;;;;0.00;0.00;;;16.60;48.40;;;;;;5074214;28;20206;-59
2023/09/24 09:51:06;;;;;;;0.00;0.00;;;16.60;48.40;;;;;;5074289;28;20698;-60
2023/09/24 09:53:37;;;;;;;0.10;0.10;;;16.60;48.40;;;;;;5074098;28;20198;-65
2023/09/24 09:56:08;;;;;;;0.03;0.03;;;16.60;48.40;;;;;;5071168;28;20254;-61
2023/09/24 09:58:46;;;;;;;0.10;0.10;;;16.60;48.50;;;;;;5073018;28;20554;-55
2023/09/24 10:01:20;;;;;;;0.10;0.10;;;16.60;48.40;;;;;;5073585;28;20219;-59
2023/09/24 10:03:52;;;;;;;0.00;0.00;;;16.60;48.40;;;;;;5073696;28;20702;-60
2023/09/24 10:06:24;;;;;;;0.03;0.03;;;16.60;48.40;;;;;;5074019;28;20670;-61
2023/09/24 10:08:55;;;;;;;0.10;0.10;;;16.60;48.50;;;;;;5073481;28;20237;-61
2023/09/24 10:11:53;;;;;;;0.00;0.00;;;16.60;48.50;;;;;;5073386;28;20211;-60
2023/09/24 10:14:48;;;;;;;0.10;0.10;;;16.60;48.50;;;;;;5074340;28;20671;-64
2023/09/24 10:17:28;;;;;;;0.10;0.10;;;16.60;48.50;;;;;;5070808;28;20697;-64
2023/09/24 10:20:08;;;;;;;0.00;0.00;;;16.50;48.40;;;;;;5073462;28;20198;-60
2023/09/24 10:22:42;;;;;;;0.00;0.00;;;16.50;48.40;;;;;;5073189;28;20206;-61
2023/09/24 10:25:37;;;;;;;0.00;0.00;;;16.50;48.50;;;;;;5072750;28;20202;-61
2023/09/24 10:28:09;;;;;;;0.10;0.10;;;16.50;48.50;;;;;;5062247;28;20201;-65
2023/09/24 10:31:09;;;;;;;0.00;0.00;;;16.50;48.40;;;;;;5072874;28;20219;-56
2023/09/24 10:33:57;;;;;;;0.10;0.10;;;16.50;48.50;;;;;;5073090;28;20194;-58
2023/09/24 10:36:30;;;;;;;0.00;0.00;;;16.50;48.50;;;;;;5073456;28;20317;-61
2023/09/24 10:39:08;;;;;;;0.00;0.00;;;16.50;48.50;;;;;;5072890;28;20230;-60
2023/09/24 10:41:59;;;;;;;0.10;0.10;;;16.50;49.10;;;;;;5073039;28;20218;-61
2023/09/24 10:44:30;;;;;;;0.10;0.10;;;16.50;48.50;;;;;;5073287;28;20199;-63
2023/09/24 10:47:22;;;;;;;0.10;0.10;;;16.50;48.50;;;;;;5072532;28;20597;-61
2023/09/24 10:50:03;;;;;;;0.00;0.00;;;16.50;48.50;;;;;;5072422;28;20569;-60
2023/09/24 10:52:48;;;;;;;0.00;0.00;;;16.50;48.50;;;;;;5072182;28;20225;-62
2023/09/24 10:55:19;;;;;;;0.10;0.10;;;16.50;48.50;;;;;;5071037;28;20222;-61
2023/09/24 10:57:53;;;;;;;0.00;0.00;;;16.50;48.50;;;;;;5072100;28;20213;-62
2023/09/24 11:00:25;;;;;;;0.10;0.10;;;16.50;48.50;;;;;;5072702;28;20286;-62
2023/09/24 11:02:59;;;;;;;0.10;0.10;;;16.50;48.50;;;;;;5072870;28;20217;-61
2023/09/24 11:05:30;;;;;;;0.10;0.10;;;16.50;48.50;;;;;;5072621;28;20657;-59
2023/09/24 11:08:01;;;;;;;0.10;0.10;;;16.50;48.50;;;;;;5072742;28;20660;-60
2023/09/24 11:10:32;;;;;;;0.10;0.10;;;16.40;48.50;;;;;;5072450;28;20206;-60
2023/09/24 11:13:04;;;;;;;0.08;0.08;;;16.50;48.50;;;;;;5085432;22;21295;-44
2023/09/24 11:15:35;;;;;;;0.00;0.00;;;16.40;48.50;;;;;;5072431;28;20252;-44
2023/09/24 11:18:09;;;;;;;0.10;0.10;;;16.40;48.50;;;;;;5072606;28;20195;-44
2023/09/24 11:20:39;;;;;;;0.00;0.00;;;16.40;48.50;;;;;;5072605;28;20584;-45
2023/09/24 11:23:11;;;;;;;0.10;0.10;;;16.40;48.50;;;;;;5072422;28;20549;-45
2023/09/24 11:25:42;;;;;;;0.00;0.00;;;16.40;48.50;;;;;;5071837;28;20253;-44
2023/09/24 11:28:12;;;;;;;0.10;0.10;;;16.40;48.50;;;;;;5071155;28;20198;-44
2023/09/24 11:30:44;;;;;;;0.03;0.03;;;16.40;48.50;;;;;;5072080;28;20219;-46
2023/09/24 11:33:18;;;;;;;0.00;0.00;;;16.40;48.50;;;;;;5072058;28;20579;-45
2023/09/24 11:35:50;;;;;;;0.10;0.10;;;16.40;48.40;;;;;;5071682;28;20274;-44
2023/09/24 11:38:31;;;;;;;0.10;0.10;;;16.40;48.40;;;;;;5071195;28;20202;-45
2023/09/24 11:41:14;;;;;;;0.10;0.10;;;16.40;48.40;;;;;;5071645;28;20666;-46
2023/09/24 11:43:45;;;;;;;0.10;0.10;;;16.40;48.40;;;;;;5071828;28;20207;-46
2023/09/24 11:46:27;;;;;;;0.00;0.00;;;16.40;48.40;;;;;;5071658;28;20199;-46
2023/09/24 11:49:00;;;;;;;0.10;0.10;;;16.40;48.40;;;;;;5071998;28;20646;-46
2023/09/24 11:51:31;;;;;;;0.10;0.10;;;16.40;48.40;;;;;;5071864;28;20731;-44
2023/09/24 11:54:02;;;;;;;0.00;0.00;;;16.30;48.40;;;;;;5071351;28;20260;-45
2023/09/24 11:56:33;;;;;;;0.10;0.10;;;16.30;48.40;;;;;;5072006;28;20735;-45
2023/09/24 11:59:04;;;;;;;0.10;0.10;;;16.30;48.40;;;;;;5072035;28;20230;-45
2023/09/24 12:01:34;;;;;;;0.10;0.10;;;16.30;48.50;;;;;;5071914;28;20229;-45
2023/09/24 12:04:07;;;;;;;0.03;0.03;;;16.30;48.40;;;;;;5071804;28;20194;-46
2023/09/24 12:06:38;;;;;;;0.10;0.10;;;16.30;48.50;;;;;;5071117;28;20211;-46
2023/09/24 12:09:09;;;;;;;0.10;0.10;;;16.30;48.50;;;;;;5071598;28;20221;-45
2023/09/24 12:11:39;;;;;;;0.10;0.10;;;16.30;48.40;;;;;;5071313;28;20617;-45
2023/09/24 12:14:10;;;;;;;0.03;0.03;;;16.30;48.50;;;;;;5094506;22;20230;-57
2023/09/24 12:16:40;;;;;;;0.10;0.10;;;16.30;48.60;;;;;;5091827;28;20229;-51
2023/09/24 12:19:13;;;;;;;0.10;0.10;;;16.30;48.50;;;;;;5091755;28;20665;-55
2023/09/24 12:21:43;;;;;;;0.10;0.10;;;16.30;50.70;;;;;;5091840;28;20210;-59
2023/09/24 12:24:14;;;;;;;0.10;0.10;;;16.40;52.20;;;;;;5092001;28;20628;-57
2023/09/24 12:26:45;;;;;;;0.10;0.10;;;16.50;52.50;;;;;;5091738;28;20657;-57
2023/09/24 12:29:15;;;;;;;0.10;0.10;;;16.50;52.30;;;;;;5091646;28;20194;-56
2023/09/24 12:31:46;;;;;;;0.00;0.00;;;16.60;52.30;;;;;;5091751;28;20214;-59
2023/09/24 12:34:18;;;;;;;0.10;0.10;;;16.60;52.10;;;;;;5091765;28;20604;-58
2023/09/24 12:36:49;;;;;;;0.05;0.05;;;16.60;51.80;;;;;;5091806;28;20221;-60
2023/09/24 12:39:20;;;;;;;0.10;0.10;;;16.60;51.60;;;;;;5091695;28;20243;-56
2023/09/24 12:41:51;;;;;;;0.10;0.10;;;16.70;51.60;;;;;;5091191;28;20225;-57
2023/09/24 12:44:22;;;;;;;0.03;0.03;;;16.60;51.30;;;;;;5091469;28;20198;-60
2023/09/24 12:46:52;;;;;;;0.10;0.10;;;16.60;51.20;;;;;;5091567;28;20679;-57
2023/09/24 12:49:25;;;;;;;0.03;0.03;;;16.70;51.30;;;;;;5093317;28;20201;-58
2023/09/24 12:51:55;;;;;;;0.10;0.10;;;16.70;51.20;;;;;;5094900;28;20210;-58
2023/09/24 12:54:26;;;;;;;0.10;0.10;;;16.70;51.20;;;;;;5095031;28;20198;-58
2023/09/24 12:56:57;;;;;;;0.10;0.10;;;16.60;51.10;;;;;;5090056;28;20213;-57
2023/09/24 12:59:28;;;;;;;0.10;0.10;;;16.60;51.10;;;;;;5075167;28;20654;-56
2023/09/24 13:01:58;;;;;;;0.08;0.08;;;16.60;51.00;;;;;;5075147;28;20215;-57
2023/09/24 13:04:33;;;;;;;0.10;0.10;;;16.60;51.00;;;;;;5078153;28;20200;-60
2023/09/24 13:07:04;;;;;;;0.05;0.05;;;16.60;51.00;;;;;;5095438;28;20202;-55
2023/09/24 13:09:34;;;;;;;0.10;0.10;;;16.60;50.90;;;;;;5095510;28;20197;-57
2023/09/24 13:12:05;;;;;;;0.10;0.10;;;16.60;50.90;;;;;;5095113;28;20210;-56
2023/09/24 13:14:37;;;;;;;0.10;0.10;;;16.60;50.90;;;;;;5091599;22;20223;-45